Terminal Aerodrome Forecast
Issued by NWS Corpus Christi, TX

Home | Current Version | Previous Version | Text Only | Print | Product List | Glossary On
Versions: 1 2 3 4 5 6 7 8 9 10 11 12 13 14 15 16 17 18 19 20 21 22 23 24 25 26 27 28 29 30 31 32 33 34 35 36 37 38
000
FTUS44 KCRP 161139
TAFCRP
TAF
KCRP 161139Z 1612/1712 16012KT 6SM BR SCT025 OVC250
      TEMPO 1612/1616 BKN030
     FM161600 VRB04KT P6SM SCT025 BKN035
     FM161900 35014G20KT P6SM SCT025 BKN050
     FM162200 36021G29KT P6SM FEW015 SCT050 SCT250=

USA.gov is the U.S. government's official web portal to all federal, state and local government web resources and services.